createdAt,value
2018-03-06T00:00:24.916Z,0
2018-03-06T00:01:23.491Z,0
2018-03-06T00:02:22.167Z,0
2018-03-06T00:03:20.739Z,0
2018-03-06T00:04:19.316Z,0
2018-03-06T00:05:17.903Z,0
2018-03-06T00:06:16.458Z,0
2018-03-06T00:07:15.032Z,0
2018-03-06T00:08:13.708Z,0
2018-03-06T00:09:12.281Z,0
2018-03-06T00:10:10.958Z,0
2018-03-06T00:11:09.428Z,0
2018-03-06T00:12:08.000Z,0
2018-03-06T00:13:06.573Z,0
2018-03-06T00:14:05.248Z,0
2018-03-06T00:15:03.824Z,0
2018-03-06T00:16:02.398Z,0
2018-03-06T00:17:00.972Z,0
2018-03-06T00:17:59.543Z,0
2018-03-06T00:18:58.218Z,0
2018-03-06T00:19:56.794Z,0
2018-03-06T00:20:55.364Z,0
2018-03-06T00:21:53.962Z,0
2018-03-06T00:22:52.511Z,0
2018-03-06T00:23:51.084Z,0
2018-03-06T00:24:49.658Z,0
2018-03-06T00:25:48.436Z,0
2018-03-06T00:26:46.910Z,0
2018-03-06T00:27:45.483Z,0
2018-03-06T00:28:44.053Z,0
2018-03-06T00:29:42.626Z,0
2018-03-06T00:30:41.302Z,0
2018-03-06T00:31:39.877Z,0
2018-03-06T00:32:38.551Z,0
2018-03-06T00:33:37.022Z,0
2018-03-06T00:34:35.594Z,0
2018-03-06T00:35:34.275Z,0
2018-03-06T00:36:32.845Z,0
2018-03-06T00:37:31.416Z,0
2018-03-06T00:38:29.991Z,0
2018-03-06T00:39:28.563Z,0
2018-03-06T00:40:27.137Z,0
2018-03-06T00:41:25.709Z,0
2018-03-06T00:42:24.384Z,0
2018-03-06T00:43:22.959Z,0
2018-03-06T00:44:21.544Z,0
2018-03-06T00:45:20.109Z,0
2018-03-06T00:46:18.677Z,0
2018-03-06T00:47:17.251Z,0
2018-03-06T00:48:15.928Z,0
2018-03-06T00:49:14.500Z,0
2018-03-06T00:50:13.079Z,0
2018-03-06T00:51:11.648Z,0
2018-03-06T00:52:10.222Z,0
2018-03-06T00:53:08.793Z,0
2018-03-06T00:54:07.469Z,0
2018-03-06T00:55:06.043Z,0
2018-03-06T00:56:04.722Z,0
2018-03-06T00:57:03.188Z,0
2018-03-06T00:58:01.764Z,0
2018-03-06T00:59:00.334Z,0
2018-03-06T00:59:59.118Z,0
2018-03-06T01:00:57.584Z,0
2018-03-06T01:01:56.158Z,0
2018-03-06T01:02:54.731Z,0
2018-03-06T01:03:53.303Z,0
2018-03-06T01:04:51.877Z,0
2018-03-06T01:05:50.554Z,0
2018-03-06T01:06:49.129Z,0
2018-03-06T01:07:47.700Z,0
2018-03-06T01:08:46.273Z,0
2018-03-06T01:09:44.844Z,0
2018-03-06T01:10:43.419Z,0
2018-03-06T01:11:42.095Z,0
2018-03-06T01:12:40.669Z,0
2018-03-06T01:13:39.242Z,0
2018-03-06T01:14:37.814Z,0
2018-03-06T01:15:36.386Z,0
2018-03-06T01:16:35.063Z,0
2018-03-06T01:17:33.637Z,0
2018-03-06T01:18:32.210Z,0
2018-03-06T01:19:30.787Z,0
2018-03-06T01:20:29.357Z,0
2018-03-06T01:21:27.930Z,0
2018-03-06T01:22:26.604Z,0
2018-03-06T01:23:25.282Z,0
2018-03-06T01:24:23.755Z,0
2018-03-06T01:25:22.325Z,0
2018-03-06T01:26:20.898Z,0
2018-03-06T01:27:19.474Z,0
2018-03-06T01:28:18.148Z,0
2018-03-06T01:29:16.725Z,0
2018-03-06T01:30:15.293Z,0
2018-03-06T01:31:13.868Z,0
2018-03-06T01:32:12.439Z,0
2018-03-06T01:33:11.013Z,0
2018-03-06T01:34:09.689Z,0
2018-03-06T01:35:08.262Z,0
2018-03-06T01:36:06.835Z,0
2018-03-06T01:37:05.408Z,0
2018-03-06T01:38:03.982Z,0
2018-03-06T01:39:02.555Z,0
2018-03-06T01:40:01.231Z,0
2018-03-06T01:40:59.805Z,0
2018-03-06T01:41:58.378Z,0
2018-03-06T01:42:56.950Z,0
2018-03-06T01:43:55.524Z,0
2018-03-06T01:44:54.097Z,0
2018-03-06T01:45:52.772Z,0
2018-03-06T01:46:51.347Z,0
2018-03-06T01:47:49.919Z,0
2018-03-06T01:48:48.492Z,0
2018-03-06T01:49:47.067Z,0
2018-03-06T01:50:45.639Z,0
2018-03-06T01:51:44.315Z,0
2018-03-06T01:52:42.890Z,0
2018-03-06T01:53:41.460Z,0
2018-03-06T01:54:40.033Z,0
2018-03-06T01:55:38.606Z,0
2018-03-06T01:56:37.389Z,0
2018-03-06T01:57:35.856Z,0
2018-03-06T01:58:34.429Z,0
2018-03-06T01:59:33.002Z,0
2018-03-06T02:00:31.577Z,0
2018-03-06T02:01:30.148Z,0
2018-03-06T02:02:28.826Z,0
2018-03-06T02:03:27.398Z,0
2018-03-06T02:04:25.976Z,0
2018-03-06T02:05:24.544Z,0
2018-03-06T02:06:23.119Z,0
2018-03-06T02:07:21.689Z,0
2018-03-06T02:08:20.367Z,0
2018-03-06T02:09:19.044Z,0
2018-03-06T02:10:17.513Z,0
2018-03-06T02:11:16.087Z,0
2018-03-06T02:12:14.661Z,0
2018-03-06T02:13:13.232Z,0
2018-03-06T02:14:11.909Z,0
2018-03-06T02:15:10.481Z,0
2018-03-06T02:16:09.056Z,0
2018-03-06T02:17:07.729Z,0
2018-03-06T02:18:06.202Z,0
2018-03-06T02:19:04.774Z,0
2018-03-06T02:20:03.450Z,0
2018-03-06T02:21:02.026Z,0
2018-03-06T02:22:00.598Z,0
2018-03-06T02:22:59.275Z,0
2018-03-06T02:23:57.743Z,0
2018-03-06T02:24:56.317Z,0
2018-03-06T02:25:54.991Z,0
2018-03-06T02:26:53.567Z,0
2018-03-06T02:27:52.258Z,0
2018-03-06T02:28:50.712Z,0
2018-03-06T02:29:49.388Z,0
2018-03-06T02:30:47.857Z,0
2018-03-06T02:31:46.534Z,0
2018-03-06T02:32:45.111Z,0
2018-03-06T02:33:43.681Z,0
2018-03-06T02:34:42.253Z,0
2018-03-06T02:35:40.825Z,0
2018-03-06T02:36:39.502Z,0
2018-03-06T02:37:38.080Z,0
2018-03-06T02:38:36.649Z,0
2018-03-06T02:39:35.222Z,0
2018-03-06T02:40:33.798Z,0
2018-03-06T02:41:32.369Z,0
2018-03-06T02:42:31.045Z,0
2018-03-06T02:43:29.617Z,0
2018-03-06T02:44:28.194Z,0
2018-03-06T02:45:26.763Z,0
2018-03-06T02:46:25.337Z,0
2018-03-06T02:47:23.910Z,0
2018-03-06T02:48:22.585Z,0
2018-03-06T02:49:21.159Z,0
2018-03-06T02:50:19.732Z,0
2018-03-06T02:51:18.306Z,0
2018-03-06T02:52:16.879Z,0
2018-03-06T02:53:15.455Z,0
2018-03-06T02:54:14.134Z,0
2018-03-06T02:55:12.704Z,0
2018-03-06T02:56:11.274Z,0
2018-03-06T02:57:09.848Z,0
2018-03-06T02:58:08.421Z,0
2018-03-06T02:59:06.995Z,0
2018-03-06T03:00:05.674Z,0
2018-03-06T03:01:04.243Z,0
2018-03-06T03:02:02.816Z,0
2018-03-06T03:03:01.389Z,0
2018-03-06T03:03:59.963Z,0
2018-03-06T03:04:58.537Z,0
2018-03-06T03:05:57.213Z,0
2018-03-06T03:06:55.784Z,0
2018-03-06T03:07:54.358Z,0
2018-03-06T03:08:52.931Z,0
2018-03-06T03:09:51.508Z,0
2018-03-06T03:10:50.079Z,0
2018-03-06T03:11:48.754Z,0
2018-03-06T03:12:47.327Z,0
2018-03-06T03:13:45.901Z,0
2018-03-06T03:14:44.473Z,0
2018-03-06T03:15:43.045Z,0
2018-03-06T03:16:41.621Z,0
2018-03-06T03:17:40.296Z,0
2018-03-06T03:18:38.868Z,0
2018-03-06T03:19:37.442Z,0
2018-03-06T03:20:36.016Z,0
2018-03-06T03:21:34.588Z,0
2018-03-06T03:22:33.265Z,0
2018-03-06T03:23:31.842Z,0
2018-03-06T03:24:30.410Z,0
2018-03-06T03:25:28.985Z,0
2018-03-06T03:26:27.555Z,0
2018-03-06T03:27:26.134Z,0
2018-03-06T03:28:24.806Z,0
2018-03-06T03:29:23.379Z,0
2018-03-06T03:30:21.954Z,0
2018-03-06T03:31:20.527Z,0
2018-03-06T03:32:19.101Z,0
2018-03-06T03:33:17.671Z,0
2018-03-06T03:34:16.349Z,0
2018-03-06T03:35:14.921Z,0
2018-03-06T03:36:13.494Z,0
2018-03-06T03:37:12.068Z,0
2018-03-06T03:38:10.640Z,0
2018-03-06T03:39:09.316Z,0
2018-03-06T03:40:07.889Z,0
2018-03-06T03:41:06.462Z,0
2018-03-06T03:42:05.140Z,0
2018-03-06T03:43:03.609Z,0
2018-03-06T03:44:02.181Z,0
2018-03-06T03:45:00.755Z,0
2018-03-06T03:45:59.432Z,0
2018-03-06T03:46:58.006Z,0
2018-03-06T03:47:56.577Z,0
2018-03-06T03:48:55.253Z,0
2018-03-06T03:49:53.725Z,0
2018-03-06T03:50:52.297Z,0
2018-03-06T03:51:50.973Z,0
2018-03-06T03:52:49.546Z,0
2018-03-06T03:53:48.120Z,0
2018-03-06T03:54:46.692Z,0
2018-03-06T03:55:45.266Z,0
2018-03-06T03:56:43.839Z,0
2018-03-06T03:57:43.540Z,0
2018-03-06T03:58:41.296Z,0
2018-03-06T03:59:40.075Z,0
2018-03-06T04:00:38.338Z,0
2018-03-06T04:01:36.910Z,0
2018-03-06T04:02:35.587Z,0
2018-03-06T04:03:34.570Z,0
2018-03-06T04:04:33.348Z,0
2018-03-06T04:05:31.409Z,0
2018-03-06T04:06:30.084Z,0
2018-03-06T04:07:28.555Z,0
2018-03-06T04:08:27.026Z,0
2018-03-06T04:09:26.315Z,0
2018-03-06T04:10:24.479Z,0
2018-03-06T04:11:23.053Z,0
2018-03-06T04:12:21.325Z,0
2018-03-06T04:13:19.894Z,0
2018-03-06T04:14:18.571Z,0
2018-03-06T04:15:17.141Z,0
2018-03-06T04:16:15.730Z,0
2018-03-06T04:17:14.291Z,0
2018-03-06T04:18:12.859Z,0
2018-03-06T04:19:11.536Z,0
2018-03-06T04:20:10.125Z,0
2018-03-06T04:21:08.800Z,0
2018-03-06T04:22:07.260Z,0
2018-03-06T04:23:05.828Z,0
2018-03-06T04:24:04.405Z,0
2018-03-06T04:25:03.079Z,0
2018-03-06T04:26:01.651Z,0
2018-03-06T04:27:00.225Z,0
2018-03-06T04:27:58.798Z,0
2018-03-06T04:28:57.371Z,0
2018-03-06T04:29:55.942Z,0
2018-03-06T04:30:54.518Z,0
2018-03-06T04:31:53.193Z,0
2018-03-06T04:32:51.868Z,0
2018-03-06T04:33:50.338Z,0
2018-03-06T04:34:48.912Z,0
2018-03-06T04:35:47.485Z,0
2018-03-06T04:36:46.062Z,0
2018-03-06T04:37:44.735Z,0
2018-03-06T04:38:43.308Z,0
2018-03-06T04:39:41.882Z,0
2018-03-06T04:40:40.455Z,0
2018-03-06T04:41:39.027Z,0
2018-03-06T04:42:37.706Z,0
2018-03-06T04:43:36.277Z,0
2018-03-06T04:44:34.853Z,0
2018-03-06T04:45:33.423Z,0
2018-03-06T04:46:31.996Z,0
2018-03-06T04:47:30.569Z,0
2018-03-06T04:48:29.245Z,0
2018-03-06T04:49:27.821Z,0
2018-03-06T04:50:26.392Z,0
2018-03-06T04:51:24.966Z,0
2018-03-06T04:52:23.538Z,0
2018-03-06T04:53:22.110Z,0
2018-03-06T04:54:20.796Z,0
2018-03-06T04:55:19.360Z,0
2018-03-06T04:56:17.934Z,0
2018-03-06T04:57:16.506Z,0
2018-03-06T04:58:15.184Z,0
2018-03-06T04:59:13.653Z,0
2018-03-06T05:00:12.329Z,0
2018-03-06T05:01:10.902Z,0
2018-03-06T05:02:09.579Z,0
2018-03-06T05:03:08.048Z,0
2018-03-06T05:04:06.624Z,0
2018-03-06T05:05:05.196Z,0
2018-03-06T05:06:03.872Z,0
2018-03-06T05:07:02.443Z,0
2018-03-06T05:08:01.020Z,0
2018-03-06T05:08:59.593Z,0
2018-03-06T05:09:58.164Z,0
2018-03-06T05:10:56.738Z,0
2018-03-06T05:11:55.446Z,0
2018-03-06T05:12:53.987Z,0
2018-03-06T05:13:52.561Z,0
2018-03-06T05:14:51.133Z,0
2018-03-06T05:15:49.706Z,0
2018-03-06T05:16:48.278Z,0
2018-03-06T05:17:46.954Z,0
2018-03-06T05:18:45.548Z,0
2018-03-06T05:19:44.105Z,0
2018-03-06T05:20:42.678Z,0
2018-03-06T05:21:41.248Z,0
2018-03-06T05:22:39.923Z,0
2018-03-06T05:23:38.497Z,0
2018-03-06T05:24:37.069Z,0
2018-03-06T05:25:35.746Z,0
2018-03-06T05:26:34.216Z,0
2018-03-06T05:27:32.787Z,0
2018-03-06T05:28:31.465Z,0
2018-03-06T05:29:30.044Z,0
2018-03-06T05:30:28.611Z,0
2018-03-06T05:31:27.185Z,0
2018-03-06T05:32:25.761Z,0
2018-03-06T05:33:24.330Z,0
2018-03-06T05:34:23.013Z,0
2018-03-06T05:35:21.580Z,0
2018-03-06T05:36:20.154Z,0
2018-03-06T05:37:18.726Z,0
2018-03-06T05:38:17.298Z,0
2018-03-06T05:39:15.873Z,0
2018-03-06T05:40:14.553Z,0
2018-03-06T05:41:13.124Z,0
2018-03-06T05:42:11.695Z,0
2018-03-06T05:43:10.270Z,0
2018-03-06T05:44:08.841Z,0
2018-03-06T05:45:07.415Z,0
2018-03-06T05:46:06.090Z,0
2018-03-06T05:47:04.666Z,0
2018-03-06T05:48:03.237Z,0
2018-03-06T05:49:01.812Z,0
2018-03-06T05:50:00.385Z,0
2018-03-06T05:50:58.956Z,0
2018-03-06T05:51:57.632Z,0
2018-03-06T05:52:56.207Z,0
2018-03-06T05:53:54.779Z,0
2018-03-06T05:54:53.352Z,0
2018-03-06T05:55:51.927Z,0
2018-03-06T05:56:50.498Z,0
2018-03-06T05:57:49.174Z,0
2018-03-06T05:58:47.746Z,0
2018-03-06T05:59:46.321Z,0
2018-03-06T06:00:44.893Z,0
2018-03-06T06:01:43.469Z,0
2018-03-06T06:02:42.142Z,0
2018-03-06T06:03:40.819Z,0
2018-03-06T06:04:39.290Z,0
2018-03-06T06:05:37.862Z,0
2018-03-06T06:06:36.439Z,0
2018-03-06T06:07:35.009Z,0
2018-03-06T06:08:33.685Z,0
2018-03-06T06:09:32.464Z,0
2018-03-06T06:10:30.831Z,0
2018-03-06T06:11:29.404Z,0
2018-03-06T06:12:27.977Z,0
2018-03-06T06:13:26.563Z,0
2018-03-06T06:14:25.338Z,0
2018-03-06T06:15:23.902Z,0
2018-03-06T06:16:22.374Z,0
2018-03-06T06:17:20.948Z,0
2018-03-06T06:18:19.519Z,0
2018-03-06T06:19:18.116Z,0
2018-03-06T06:20:16.773Z,0
2018-03-06T06:21:15.962Z,0
2018-03-06T06:22:14.120Z,0
2018-03-06T06:23:12.594Z,0
2018-03-06T06:24:11.165Z,0
2018-03-06T06:25:10.160Z,2
2018-03-06T06:26:08.314Z,2
2018-03-06T06:27:06.885Z,2
2018-03-06T06:28:05.457Z,2
2018-03-06T06:29:04.029Z,2
2018-03-06T06:30:02.603Z,2
2018-03-06T06:31:01.178Z,2
2018-03-06T06:31:59.856Z,2
2018-03-06T06:32:58.427Z,2
2018-03-06T06:33:56.998Z,2
2018-03-06T06:34:55.571Z,2
2018-03-06T06:35:54.156Z,2
2018-03-06T06:36:52.717Z,2
2018-03-06T06:37:51.394Z,2
2018-03-06T06:38:50.016Z,2
2018-03-06T06:39:48.540Z,2
2018-03-06T06:40:47.113Z,2
2018-03-06T06:41:45.688Z,2
2018-03-06T06:42:44.384Z,2
2018-03-06T06:43:42.935Z,2
2018-03-06T06:44:41.509Z,2
2018-03-06T06:45:40.082Z,2
2018-03-06T06:46:38.654Z,2
2018-03-06T06:47:37.229Z,2
2018-03-06T06:48:35.904Z,2
2018-03-06T06:49:34.478Z,2
2018-03-06T06:50:33.056Z,2
2018-03-06T06:51:31.624Z,2
2018-03-06T06:52:30.196Z,2
2018-03-06T06:53:28.787Z,2
2018-03-06T06:54:27.445Z,2
2018-03-06T06:55:26.019Z,5
2018-03-06T06:56:24.592Z,5
2018-03-06T06:57:23.177Z,5
2018-03-06T06:58:21.738Z,5
2018-03-06T06:59:20.312Z,5
2018-03-06T07:00:18.988Z,5
2018-03-06T07:01:17.562Z,5
2018-03-06T07:02:16.339Z,5
2018-03-06T07:03:14.707Z,5
2018-03-06T07:04:13.281Z,5
2018-03-06T07:05:11.853Z,5
2018-03-06T07:06:10.529Z,5
2018-03-06T07:07:09.103Z,5
2018-03-06T07:08:07.681Z,5
2018-03-06T07:09:06.250Z,5
2018-03-06T07:10:04.823Z,5
2018-03-06T07:11:03.396Z,5
2018-03-06T07:12:02.075Z,8
2018-03-06T07:13:00.644Z,8
2018-03-06T07:13:59.220Z,8
2018-03-06T07:14:57.789Z,8
2018-03-06T07:15:56.365Z,8
2018-03-06T07:16:54.943Z,8
2018-03-06T07:17:53.613Z,8
2018-03-06T07:18:52.190Z,8
2018-03-06T07:19:50.760Z,8
2018-03-06T07:20:49.334Z,8
2018-03-06T07:21:47.906Z,8
2018-03-06T07:22:46.483Z,8
2018-03-06T07:23:45.212Z,8
2018-03-06T07:24:43.735Z,8
2018-03-06T07:25:42.303Z,8
2018-03-06T07:26:40.874Z,8
2018-03-06T07:27:39.446Z,8
2018-03-06T07:28:38.126Z,8
2018-03-06T07:29:36.699Z,11
2018-03-06T07:30:35.274Z,11
2018-03-06T07:31:33.843Z,11
2018-03-06T07:32:32.419Z,11
2018-03-06T07:33:31.195Z,11
2018-03-06T07:34:29.666Z,11
2018-03-06T07:35:28.240Z,11
2018-03-06T07:36:26.914Z,11
2018-03-06T07:37:25.386Z,11
2018-03-06T07:38:23.957Z,11
2018-03-06T07:39:22.532Z,11
2018-03-06T07:40:21.208Z,11
2018-03-06T07:41:19.781Z,11
2018-03-06T07:42:18.354Z,11
2018-03-06T07:43:16.926Z,11
2018-03-06T07:44:15.500Z,11
2018-03-06T07:45:14.075Z,11
2018-03-06T07:46:12.749Z,11
2018-03-06T07:47:11.338Z,11
2018-03-06T07:48:09.899Z,11
2018-03-06T07:49:08.469Z,11
2018-03-06T07:50:07.042Z,11
2018-03-06T07:51:05.613Z,11
2018-03-06T07:52:04.291Z,11
2018-03-06T07:53:02.864Z,11
2018-03-06T07:54:01.438Z,11
2018-03-06T07:55:00.012Z,14
2018-03-06T07:55:58.583Z,14
2018-03-06T07:56:57.157Z,14
2018-03-06T07:57:55.837Z,14
2018-03-06T07:58:54.407Z,14
2018-03-06T07:59:52.979Z,14
2018-03-06T08:00:51.552Z,14
2018-03-06T08:01:50.229Z,14
2018-03-06T08:02:48.700Z,14
2018-03-06T08:03:47.375Z,14
2018-03-06T08:04:45.948Z,14
2018-03-06T08:05:44.522Z,14
2018-03-06T08:06:43.094Z,14
2018-03-06T08:07:41.668Z,17
2018-03-06T08:08:40.345Z,20
2018-03-06T08:09:38.916Z,17
2018-03-06T08:10:37.490Z,20
2018-03-06T08:11:36.064Z,20
2018-03-06T08:12:34.638Z,20
2018-03-06T08:13:33.210Z,20
2018-03-06T08:14:31.892Z,20
2018-03-06T08:15:30.457Z,20
2018-03-06T08:16:29.032Z,20
2018-03-06T08:17:27.707Z,20
2018-03-06T08:18:26.177Z,17
2018-03-06T08:19:24.750Z,17
2018-03-06T08:20:23.427Z,17
2018-03-06T08:21:22.001Z,17
2018-03-06T08:22:20.573Z,20
2018-03-06T08:23:19.148Z,20
2018-03-06T08:24:17.719Z,20
2018-03-06T08:25:16.293Z,20
2018-03-06T08:26:14.969Z,20
2018-03-06T08:27:13.546Z,20
2018-03-06T08:28:12.115Z,20
2018-03-06T08:29:10.690Z,20
2018-03-06T08:30:09.261Z,20
2018-03-06T08:31:07.838Z,20
2018-03-06T08:32:06.511Z,20
2018-03-06T08:33:05.085Z,17
2018-03-06T08:34:03.661Z,20
2018-03-06T08:35:02.257Z,20
2018-03-06T08:36:00.803Z,20
2018-03-06T08:36:59.379Z,20
2018-03-06T08:37:58.062Z,20
2018-03-06T08:38:56.625Z,20
2018-03-06T08:39:55.199Z,20
2018-03-06T08:40:53.772Z,20
2018-03-06T08:41:52.346Z,20
2018-03-06T08:42:51.032Z,20
2018-03-06T08:43:49.595Z,20
2018-03-06T08:44:48.221Z,20
2018-03-06T08:45:46.741Z,20
2018-03-06T08:46:45.313Z,20
2018-03-06T08:47:43.887Z,20
2018-03-06T08:48:42.563Z,20
2018-03-06T08:49:41.138Z,23
2018-03-06T08:50:39.710Z,25
2018-03-06T08:51:38.292Z,25
2018-03-06T08:52:36.958Z,25
2018-03-06T08:53:35.465Z,25
2018-03-06T08:54:34.106Z,25
2018-03-06T08:55:32.679Z,25
2018-03-06T08:56:31.259Z,28
2018-03-06T08:57:29.824Z,28
2018-03-06T08:58:28.399Z,28
2018-03-06T08:59:27.074Z,31
2018-03-06T09:00:25.656Z,28
2018-03-06T09:01:24.220Z,31
2018-03-06T09:02:22.793Z,31
2018-03-06T09:03:21.371Z,25
2018-03-06T09:04:19.939Z,25
2018-03-06T09:05:18.516Z,28
2018-03-06T09:06:17.189Z,28
2018-03-06T09:07:15.762Z,31
2018-03-06T09:08:14.337Z,31
2018-03-06T09:09:12.917Z,31
2018-03-06T09:10:11.481Z,31
2018-03-06T09:11:10.053Z,31
2018-03-06T09:12:08.835Z,31
2018-03-06T09:13:07.305Z,31
2018-03-06T09:14:05.978Z,31
2018-03-06T09:15:04.450Z,31
2018-03-06T09:16:03.027Z,31
2018-03-06T09:17:01.599Z,34
2018-03-06T09:18:00.271Z,34
2018-03-06T09:18:58.849Z,34
2018-03-06T09:19:57.418Z,34
2018-03-06T09:20:55.991Z,34
2018-03-06T09:21:54.569Z,34
2018-03-06T09:22:53.139Z,34
2018-03-06T09:23:51.814Z,34
2018-03-06T09:24:50.387Z,34
2018-03-06T09:25:48.961Z,34
2018-03-06T09:26:47.534Z,34
2018-03-06T09:27:46.107Z,34
2018-03-06T09:28:44.783Z,34
2018-03-06T09:29:43.356Z,34
2018-03-06T09:30:41.929Z,34
2018-03-06T09:31:40.503Z,34
2018-03-06T09:32:39.080Z,34
2018-03-06T09:33:37.648Z,34
2018-03-06T09:34:36.325Z,34
2018-03-06T09:35:34.999Z,34
2018-03-06T09:36:33.472Z,34
2018-03-06T09:37:32.045Z,34
2018-03-06T09:38:30.634Z,34
2018-03-06T09:39:29.194Z,34
2018-03-06T09:40:27.867Z,34
2018-03-06T09:41:26.440Z,34
2018-03-06T09:42:25.014Z,34
2018-03-06T09:43:23.586Z,34
2018-03-06T09:44:22.159Z,34
2018-03-06T09:45:20.731Z,37
2018-03-06T09:46:19.408Z,37
2018-03-06T09:47:17.981Z,37
2018-03-06T09:48:16.554Z,37
2018-03-06T09:49:15.128Z,37
2018-03-06T09:50:13.701Z,37
2018-03-06T09:51:12.274Z,37
2018-03-06T09:52:10.949Z,37
2018-03-06T09:53:09.522Z,37
2018-03-06T09:54:08.099Z,40
2018-03-06T09:55:06.670Z,43
2018-03-06T09:56:05.243Z,43
2018-03-06T09:57:03.919Z,40
2018-03-06T09:58:02.496Z,43
2018-03-06T09:59:01.066Z,43
2018-03-06T09:59:59.638Z,43
2018-03-06T10:00:58.211Z,43
2018-03-06T10:01:56.784Z,43
2018-03-06T10:02:55.356Z,43
2018-03-06T10:04:52.607Z,43
2018-03-06T10:05:51.183Z,43
2018-03-06T10:06:49.752Z,43
2018-03-06T10:07:48.326Z,43
2018-03-06T10:08:47.003Z,43
2018-03-06T10:09:45.579Z,43
2018-03-06T10:10:44.193Z,46
2018-03-06T10:11:42.721Z,46
2018-03-06T10:12:41.296Z,46
2018-03-06T10:13:39.868Z,46
2018-03-06T10:14:38.543Z,43
2018-03-06T10:15:37.116Z,46
2018-03-06T10:16:35.707Z,46
2018-03-06T10:17:34.263Z,46
2018-03-06T10:18:32.836Z,43
2018-03-06T10:19:31.411Z,46
2018-03-06T10:20:30.086Z,43
2018-03-06T10:21:28.659Z,43
2018-03-06T10:22:27.326Z,43
2018-03-06T10:23:25.804Z,46
2018-03-06T10:24:24.378Z,46
2018-03-06T10:25:22.952Z,43
2018-03-06T10:26:21.628Z,43
2018-03-06T10:27:20.200Z,43
2018-03-06T10:28:18.774Z,43
2018-03-06T10:29:17.348Z,43
2018-03-06T10:30:15.922Z,43
2018-03-06T10:31:14.527Z,43
2018-03-06T10:32:13.272Z,43
2018-03-06T10:33:11.741Z,46
2018-03-06T10:34:10.315Z,43
2018-03-06T10:35:08.888Z,43
2018-03-06T10:36:07.478Z,43
2018-03-06T10:37:06.034Z,43
2018-03-06T10:38:04.710Z,43
2018-03-06T10:39:03.285Z,43
2018-03-06T10:40:01.859Z,40
2018-03-06T10:41:00.432Z,37
2018-03-06T10:41:59.013Z,37
2018-03-06T10:42:57.577Z,40
2018-03-06T10:43:56.254Z,40
2018-03-06T10:44:54.826Z,40
2018-03-06T10:45:53.399Z,37
2018-03-06T10:46:51.974Z,37
2018-03-06T10:47:50.547Z,37
2018-03-06T10:48:49.223Z,37
2018-03-06T10:49:47.796Z,37
2018-03-06T10:50:46.368Z,37
2018-03-06T10:51:45.147Z,37
2018-03-06T10:52:43.515Z,37
2018-03-06T10:53:42.088Z,37
2018-03-06T10:54:40.764Z,37
2018-03-06T10:55:39.338Z,40
2018-03-06T10:56:37.910Z,37
2018-03-06T10:57:36.496Z,37
2018-03-06T10:58:35.058Z,37
2018-03-06T10:59:33.732Z,37
2018-03-06T11:00:32.305Z,37
2018-03-06T11:01:30.881Z,37
2018-03-06T11:02:29.557Z,37
2018-03-06T11:03:28.128Z,37
2018-03-06T11:04:26.648Z,37
2018-03-06T11:05:25.171Z,34
2018-03-06T11:06:23.847Z,37
2018-03-06T11:07:22.420Z,37
2018-03-06T11:08:20.994Z,37
2018-03-06T11:09:19.568Z,37
2018-03-06T11:10:18.140Z,34
2018-03-06T11:11:16.716Z,34
2018-03-06T11:12:15.388Z,34
2018-03-06T11:13:14.066Z,34
2018-03-06T11:14:12.536Z,34
2018-03-06T11:15:11.108Z,34
2018-03-06T11:16:09.680Z,34
2018-03-06T11:17:08.255Z,34
2018-03-06T11:18:06.932Z,34
2018-03-06T11:19:05.504Z,34
2018-03-06T11:20:04.078Z,34
2018-03-06T11:21:02.649Z,34
2018-03-06T11:22:01.329Z,34
2018-03-06T11:22:59.814Z,34
2018-03-06T11:23:58.474Z,31
2018-03-06T11:24:57.046Z,31
2018-03-06T11:25:55.620Z,31
2018-03-06T11:26:54.192Z,31
2018-03-06T11:27:52.766Z,31
2018-03-06T11:28:51.339Z,28
2018-03-06T11:29:50.019Z,31
2018-03-06T11:30:48.588Z,31
2018-03-06T11:31:47.163Z,31
2018-03-06T11:32:45.733Z,28
2018-03-06T11:33:44.307Z,28
2018-03-06T11:34:42.986Z,28
2018-03-06T11:35:41.557Z,28
2018-03-06T11:36:40.134Z,25
2018-03-06T11:37:38.703Z,31
2018-03-06T11:38:37.275Z,25
2018-03-06T11:39:35.849Z,25
2018-03-06T11:40:34.525Z,25
2018-03-06T11:41:33.098Z,28
2018-03-06T11:42:31.793Z,25
2018-03-06T11:43:30.248Z,25
2018-03-06T11:44:28.817Z,25
2018-03-06T11:45:27.397Z,25
2018-03-06T11:46:26.068Z,25
2018-03-06T11:47:24.650Z,25
2018-03-06T11:48:23.214Z,25
2018-03-06T11:49:21.786Z,25
2018-03-06T11:50:20.360Z,25
2018-03-06T11:51:18.935Z,25
2018-03-06T11:52:17.609Z,25
2018-03-06T11:53:16.185Z,25
2018-03-06T11:54:14.756Z,25
2018-03-06T11:55:13.328Z,25
2018-03-06T11:56:12.004Z,25
2018-03-06T11:57:10.475Z,25
2018-03-06T11:58:09.149Z,25
2018-03-06T11:59:07.727Z,28
2018-03-06T12:00:06.297Z,28
2018-03-06T12:01:04.871Z,28
2018-03-06T12:02:03.488Z,31
2018-03-06T12:03:02.017Z,31
2018-03-06T12:04:00.696Z,31
2018-03-06T12:04:59.266Z,31
2018-03-06T12:05:57.838Z,34
2018-03-06T12:06:56.413Z,34
2018-03-06T12:07:54.986Z,34
2018-03-06T12:08:53.557Z,34
2018-03-06T12:09:52.240Z,34
2018-03-06T12:10:50.910Z,34
2018-03-06T12:11:49.380Z,34
2018-03-06T12:12:47.953Z,34
2018-03-06T12:13:46.526Z,34
2018-03-06T12:14:45.203Z,34
2018-03-06T12:15:43.879Z,34
2018-03-06T12:16:42.349Z,34
2018-03-06T12:17:40.923Z,34
2018-03-06T12:18:39.502Z,34
2018-03-06T12:19:38.069Z,34
2018-03-06T12:20:36.745Z,34
2018-03-06T12:21:35.323Z,34
2018-03-06T12:22:33.895Z,34
2018-03-06T12:23:32.469Z,34
2018-03-06T12:24:31.038Z,34
2018-03-06T12:25:29.610Z,34
2018-03-06T12:26:28.285Z,37
2018-03-06T12:27:26.859Z,37
2018-03-06T12:28:25.433Z,37
2018-03-06T12:29:24.008Z,37
2018-03-06T12:30:22.579Z,37
2018-03-06T12:31:21.153Z,37
2018-03-06T12:32:19.832Z,37
2018-03-06T12:33:18.402Z,37
2018-03-06T12:34:16.975Z,37
2018-03-06T12:35:15.548Z,37
2018-03-06T12:36:14.126Z,37
2018-03-06T12:37:12.693Z,37
2018-03-06T12:38:11.371Z,37
2018-03-06T12:39:10.149Z,34
2018-03-06T12:40:08.516Z,34
2018-03-06T12:41:07.089Z,34
2018-03-06T12:42:05.663Z,34
2018-03-06T12:43:04.236Z,34
2018-03-06T12:44:02.913Z,34
2018-03-06T12:45:01.486Z,34
2018-03-06T12:46:00.058Z,34
2018-03-06T12:46:58.631Z,34
2018-03-06T12:47:57.204Z,34
2018-03-06T12:48:55.777Z,31
2018-03-06T12:49:54.454Z,31
2018-03-06T12:50:53.031Z,28
2018-03-06T12:51:51.601Z,25
2018-03-06T12:52:50.173Z,25
2018-03-06T12:53:48.746Z,25
2018-03-06T12:54:47.386Z,25
2018-03-06T12:55:45.995Z,25
2018-03-06T12:56:44.672Z,23
2018-03-06T12:57:43.142Z,23
2018-03-06T12:58:41.716Z,23
2018-03-06T12:59:40.290Z,23
2018-03-06T13:00:38.968Z,23
2018-03-06T13:01:37.538Z,23
2018-03-06T13:02:36.111Z,23
2018-03-06T13:03:34.684Z,23
2018-03-06T13:04:33.257Z,20
2018-03-06T13:05:31.933Z,20
2018-03-06T13:06:30.506Z,20
2018-03-06T13:07:29.106Z,20
2018-03-06T13:08:27.656Z,20
2018-03-06T13:09:26.230Z,20
2018-03-06T13:10:24.902Z,20
2018-03-06T13:11:23.373Z,20
2018-03-06T13:12:22.048Z,20
2018-03-06T13:13:20.620Z,20
2018-03-06T13:14:19.193Z,20
2018-03-06T13:15:17.871Z,20
2018-03-06T13:16:16.341Z,20
2018-03-06T13:17:14.913Z,20
2018-03-06T13:18:13.590Z,20
2018-03-06T13:19:12.163Z,20
2018-03-06T13:20:10.736Z,20
2018-03-06T13:21:09.310Z,20
2018-03-06T13:22:07.884Z,20
2018-03-06T13:23:06.559Z,20
2018-03-06T13:24:05.132Z,20
2018-03-06T13:25:03.704Z,20
2018-03-06T13:26:02.281Z,20
2018-03-06T13:27:00.850Z,20
2018-03-06T13:27:59.424Z,20
2018-03-06T13:28:58.100Z,20
2018-03-06T13:29:56.672Z,20
2018-03-06T13:30:55.246Z,20
2018-03-06T13:31:53.824Z,20
2018-03-06T13:32:52.393Z,20
2018-03-06T13:33:50.974Z,20
2018-03-06T13:34:49.641Z,20
2018-03-06T13:35:48.215Z,20
2018-03-06T13:36:46.806Z,20
2018-03-06T13:37:45.361Z,20
2018-03-06T13:38:43.935Z,20
2018-03-06T13:39:42.508Z,20
2018-03-06T13:40:41.183Z,20
2018-03-06T13:41:39.757Z,20
2018-03-06T13:42:38.330Z,20
2018-03-06T13:43:36.903Z,20
2018-03-06T13:44:35.477Z,20
2018-03-06T13:45:34.050Z,20
2018-03-06T13:46:32.726Z,20
2018-03-06T13:47:31.298Z,20
2018-03-06T13:48:29.872Z,20
2018-03-06T13:49:28.461Z,20
2018-03-06T13:50:27.017Z,20
2018-03-06T13:51:25.592Z,20
2018-03-06T13:52:24.268Z,20
2018-03-06T13:53:22.943Z,20
2018-03-06T13:54:21.413Z,20
2018-03-06T13:55:19.988Z,20
2018-03-06T13:56:18.578Z,20
2018-03-06T13:57:17.134Z,20
2018-03-06T13:58:15.809Z,23
2018-03-06T13:59:14.383Z,23
2018-03-06T14:00:12.956Z,23
2018-03-06T14:01:11.529Z,23
2018-03-06T14:02:10.102Z,23
2018-03-06T14:03:08.676Z,23
2018-03-06T14:04:07.351Z,25
2018-03-06T14:05:05.923Z,25
2018-03-06T14:06:04.497Z,25
2018-03-06T14:07:03.071Z,25
2018-03-06T14:08:01.648Z,25
2018-03-06T14:09:00.216Z,25
2018-03-06T14:09:58.893Z,25
2018-03-06T14:10:57.466Z,25
2018-03-06T14:11:56.040Z,28
2018-03-06T14:12:54.719Z,25